createdAt,value
2023-03-29T00:00:14.648Z,631.6923
2023-03-29T00:01:35.051Z,631.3846
2023-03-29T00:02:17.918Z,633.8333
2023-03-29T00:03:19.729Z,637.1539
2023-03-29T00:04:21.226Z,641.7692
2023-03-29T00:05:22.853Z,642.3846
2023-03-29T00:06:24.532Z,640.5385
2023-03-29T00:07:26.183Z,642.1539
2023-03-29T00:08:27.836Z,633.0000
2023-03-29T00:09:29.484Z,637.4615
2023-03-29T00:10:31.120Z,639.0000
2023-03-29T00:11:32.800Z,639.6154
2023-03-29T00:12:34.428Z,642.7692
2023-03-29T00:13:36.128Z,642.5385
2023-03-29T00:14:37.734Z,638.1539
2023-03-29T00:15:39.405Z,640.4615
2023-03-29T00:16:41.071Z,645.0000
2023-03-29T00:17:42.767Z,643.6923
2023-03-29T00:18:44.385Z,642.0000
2023-03-29T00:19:46.023Z,640.3077
2023-03-29T00:20:47.666Z,636.4615
2023-03-29T00:21:49.322Z,638.6923
2023-03-29T00:22:50.967Z,641.1539
2023-03-29T00:23:52.670Z,641.6154
2023-03-29T00:24:54.319Z,643.0769
2023-03-29T00:25:55.957Z,643.6154
2023-03-29T00:26:57.610Z,639.3077
2023-03-29T00:27:59.268Z,642.0000
2023-03-29T00:29:00.943Z,647.1539
2023-03-29T00:30:02.570Z,644.9231
2023-03-29T00:31:04.430Z,645.1539
2023-03-29T00:32:05.877Z,643.7692
2023-03-29T00:33:07.554Z,641.4615
2023-03-29T00:34:09.199Z,644.9231
2023-03-29T00:35:10.825Z,645.8461
2023-03-29T00:36:12.497Z,646.6154
2023-03-29T00:37:14.112Z,646.6923
2023-03-29T00:38:15.798Z,641.7692
2023-03-29T00:39:17.449Z,638.0000
2023-03-29T00:40:19.099Z,643.3846
2023-03-29T00:41:20.734Z,640.5385
2023-03-29T00:42:22.407Z,640.1539
2023-03-29T00:43:24.041Z,641.4615
2023-03-29T00:44:25.744Z,641.7692
2023-03-29T00:45:27.354Z,641.6923
2023-03-29T00:46:29.108Z,640.5385
2023-03-29T00:47:30.671Z,642.1539
2023-03-29T00:48:32.383Z,643.5385
2023-03-29T00:49:33.994Z,644.6154
2023-03-29T00:50:35.647Z,645.3077
2023-03-29T00:51:37.291Z,644.8461
2023-03-29T00:52:38.950Z,645.0000
2023-03-29T00:53:40.580Z,645.1539
2023-03-29T00:54:42.294Z,643.5385
2023-03-29T00:55:43.895Z,643.4615
2023-03-29T00:56:45.578Z,640.1539
2023-03-29T00:57:47.200Z,647.2308
2023-03-29T00:58:48.871Z,649.2308
2023-03-29T00:59:50.579Z,649.2308
2023-03-29T01:00:52.206Z,649.0000
2023-03-29T01:01:53.871Z,649.0769
2023-03-29T01:02:55.538Z,647.2308
2023-03-29T01:03:57.154Z,646.8461
2023-03-29T01:04:58.817Z,650.6154
2023-03-29T01:06:00.462Z,645.2308
2023-03-29T01:07:02.159Z,645.5385
2023-03-29T01:08:03.757Z,645.8461
2023-03-29T01:09:05.419Z,645.3077
2023-03-29T01:10:07.085Z,652.2308
2023-03-29T01:11:08.735Z,652.0000
2023-03-29T01:12:10.388Z,652.4615
2023-03-29T01:13:12.043Z,651.0000
2023-03-29T01:14:13.684Z,643.3846
2023-03-29T01:15:15.398Z,648.0769
2023-03-29T01:16:17.094Z,647.4615
2023-03-29T01:17:18.683Z,648.0000
2023-03-29T01:18:20.307Z,649.5385
2023-03-29T01:19:21.977Z,649.0000
2023-03-29T01:20:23.635Z,644.6154
2023-03-29T01:21:25.285Z,645.6923
2023-03-29T01:22:26.931Z,649.0769
2023-03-29T01:23:28.599Z,649.0769
2023-03-29T01:24:30.225Z,650.0000
2023-03-29T01:25:31.918Z,648.7692
2023-03-29T01:26:33.540Z,651.4615
2023-03-29T01:27:35.208Z,651.6923
2023-03-29T01:28:36.847Z,650.0769
2023-03-29T01:29:38.507Z,649.6154
2023-03-29T01:30:40.173Z,649.8461
2023-03-29T01:31:41.902Z,645.0000
2023-03-29T01:32:43.450Z,644.4615
2023-03-29T01:33:45.142Z,645.4615
2023-03-29T01:34:46.802Z,644.0769
2023-03-29T01:35:48.521Z,645.0769
2023-03-29T01:36:50.073Z,647.1539
2023-03-29T01:37:51.760Z,645.4615
2023-03-29T01:38:53.401Z,648.1539
2023-03-29T01:39:55.061Z,646.1539
2023-03-29T01:40:56.722Z,649.3077
2023-03-29T01:41:58.367Z,649.4615
2023-03-29T01:43:00.024Z,648.3846
2023-03-29T01:44:01.692Z,646.5385
2023-03-29T01:45:03.325Z,645.0000
2023-03-29T01:46:05.454Z,645.4615
2023-03-29T01:47:06.630Z,648.4615
2023-03-29T01:48:08.303Z,651.7692
2023-03-29T01:49:09.950Z,649.6923
2023-03-29T01:50:11.620Z,650.5385
2023-03-29T01:51:13.316Z,652.8461
2023-03-29T01:52:14.941Z,650.5385
2023-03-29T01:53:16.572Z,650.9231
2023-03-29T01:54:18.245Z,650.5385
2023-03-29T01:55:19.879Z,648.7692
2023-03-29T01:56:21.571Z,647.0769
2023-03-29T01:57:23.276Z,646.0769
2023-03-29T01:58:24.861Z,647.2308
2023-03-29T01:59:26.500Z,647.6154
2023-03-29T02:00:28.152Z,651.3846
2023-03-29T02:01:29.841Z,652.7692
2023-03-29T02:02:31.560Z,651.3077
2023-03-29T02:03:33.199Z,652.4615
2023-03-29T02:04:34.796Z,652.0769
2023-03-29T02:05:36.409Z,651.6154
2023-03-29T02:06:38.100Z,652.0769
2023-03-29T02:07:39.713Z,651.4615
2023-03-29T02:08:41.386Z,650.0000
2023-03-29T02:09:43.022Z,651.4615
2023-03-29T02:10:44.692Z,654.0769
2023-03-29T02:11:46.353Z,654.0769
2023-03-29T02:12:48.001Z,655.0000
2023-03-29T02:13:49.641Z,653.4615
2023-03-29T02:14:51.304Z,653.0769
2023-03-29T02:15:53.117Z,654.6923
2023-03-29T02:16:54.633Z,658.8461
2023-03-29T02:17:56.262Z,653.8461
2023-03-29T02:18:57.933Z,651.2308
2023-03-29T02:19:59.549Z,654.3846
2023-03-29T02:21:01.441Z,656.2308
2023-03-29T02:22:02.892Z,657.9231
2023-03-29T02:23:04.537Z,656.3077
2023-03-29T02:24:06.156Z,658.2308
2023-03-29T02:25:07.841Z,654.6923
2023-03-29T02:26:09.460Z,653.9231
2023-03-29T02:27:11.178Z,653.0000
2023-03-29T02:28:12.781Z,653.3077
2023-03-29T02:29:14.446Z,650.1539
2023-03-29T02:30:16.083Z,653.0000
2023-03-29T02:31:17.788Z,654.4615
2023-03-29T02:32:19.405Z,652.2308
2023-03-29T02:33:21.048Z,655.1539
2023-03-29T02:34:22.756Z,654.6154
2023-03-29T02:35:24.359Z,654.0769
2023-03-29T02:36:25.987Z,655.5385
2023-03-29T02:37:27.686Z,655.6923
2023-03-29T02:38:29.303Z,657.3846
2023-03-29T02:39:30.972Z,657.9231
2023-03-29T02:40:32.609Z,655.0769
2023-03-29T02:41:34.262Z,656.8461
2023-03-29T02:42:35.949Z,657.0000
2023-03-29T02:43:37.572Z,654.9231
2023-03-29T02:44:39.278Z,652.1539
2023-03-29T02:45:40.936Z,654.9231
2023-03-29T02:46:42.691Z,655.3077
2023-03-29T02:47:44.364Z,652.3846
2023-03-29T02:48:45.887Z,652.7692
2023-03-29T02:49:50.343Z,655.5385
2023-03-29T02:50:49.215Z,654.0000
2023-03-29T02:51:50.844Z,649.2308
2023-03-29T02:52:52.562Z,652.3846
2023-03-29T02:53:54.148Z,656.1539
2023-03-29T02:54:55.829Z,658.0769
2023-03-29T02:55:57.449Z,660.1539
2023-03-29T02:56:59.160Z,663.1539
2023-03-29T02:58:00.780Z,660.5385
2023-03-29T02:59:02.433Z,658.6923
2023-03-29T03:00:04.075Z,656.1539
2023-03-29T03:01:05.730Z,655.8461
2023-03-29T03:02:07.435Z,657.5385
2023-03-29T03:03:09.214Z,658.0769
2023-03-29T03:04:10.749Z,656.3077
2023-03-29T03:05:12.352Z,655.6923
2023-03-29T03:06:14.931Z,656.6923
2023-03-29T03:07:15.663Z,658.9231
2023-03-29T03:08:17.304Z,659.7692
2023-03-29T03:09:18.949Z,656.1539
2023-03-29T03:10:20.601Z,653.6923
2023-03-29T03:11:22.260Z,651.6923
2023-03-29T03:12:23.902Z,654.6923
2023-03-29T03:13:25.590Z,652.1539
2023-03-29T03:14:27.209Z,648.1539
2023-03-29T03:15:28.875Z,652.3846
2023-03-29T03:16:30.588Z,652.0769
2023-03-29T03:17:32.195Z,649.4615
2023-03-29T03:18:33.998Z,647.9231
2023-03-29T03:19:35.485Z,652.6154
2023-03-29T03:20:37.095Z,653.8461
2023-03-29T03:21:38.786Z,656.8461
2023-03-29T03:22:40.420Z,659.3846
2023-03-29T03:23:42.123Z,657.0000
2023-03-29T03:24:43.704Z,654.1539
2023-03-29T03:25:45.366Z,654.3846
2023-03-29T03:26:47.016Z,656.2308
2023-03-29T03:27:48.691Z,656.0769
2023-03-29T03:28:50.351Z,658.7692
2023-03-29T03:29:51.982Z,659.5385
2023-03-29T03:30:53.640Z,658.1539
2023-03-29T03:31:55.310Z,655.5385
2023-03-29T03:32:56.953Z,657.0769
2023-03-29T03:33:58.594Z,655.8461
2023-03-29T03:35:00.216Z,656.2308
2023-03-29T03:36:01.983Z,658.8461
2023-03-29T03:37:03.522Z,656.2308
2023-03-29T03:38:05.195Z,654.0769
2023-03-29T03:39:06.841Z,651.6154
2023-03-29T03:40:08.495Z,650.9231
2023-03-29T03:41:10.133Z,646.6923
2023-03-29T03:42:11.804Z,647.6154
2023-03-29T03:43:13.434Z,655.6923
2023-03-29T03:44:15.134Z,655.9231
2023-03-29T03:45:16.745Z,659.3077
2023-03-29T03:46:18.500Z,661.9231
2023-03-29T03:47:20.046Z,663.2308
2023-03-29T03:48:21.726Z,660.6154
2023-03-29T03:49:23.408Z,660.0000
2023-03-29T03:50:25.024Z,661.1539
2023-03-29T03:51:26.666Z,663.7692
2023-03-29T03:52:28.336Z,665.2308
2023-03-29T03:53:29.973Z,665.2308
2023-03-29T03:54:31.664Z,663.3077
2023-03-29T03:55:33.309Z,663.1539
2023-03-29T03:56:34.964Z,658.3077
2023-03-29T03:57:36.584Z,657.3846
2023-03-29T03:58:38.254Z,657.4615
2023-03-29T03:59:39.919Z,655.8461
2023-03-29T04:00:41.563Z,654.6154
2023-03-29T04:01:43.208Z,651.2308
2023-03-29T04:02:44.904Z,650.0769
2023-03-29T04:03:46.543Z,654.4615
2023-03-29T04:04:48.188Z,657.5385
2023-03-29T04:05:49.812Z,657.3077
2023-03-29T04:06:51.497Z,657.3846
2023-03-29T04:07:53.121Z,654.1539
2023-03-29T04:08:54.792Z,653.0769
2023-03-29T04:09:56.462Z,655.4615
2023-03-29T04:10:58.107Z,654.6154
2023-03-29T04:11:59.745Z,652.4615
2023-03-29T04:13:01.462Z,652.8461
2023-03-29T04:14:03.056Z,650.3077
2023-03-29T04:15:04.748Z,647.7692
2023-03-29T04:16:06.392Z,652.6154
2023-03-29T04:17:08.052Z,658.7692
2023-03-29T04:18:09.757Z,654.0000
2023-03-29T04:19:11.349Z,654.3846
2023-03-29T04:20:13.015Z,655.4615
2023-03-29T04:21:14.648Z,653.3077
2023-03-29T04:22:16.284Z,651.6923
2023-03-29T04:23:17.975Z,652.4615
2023-03-29T04:24:19.604Z,657.0000
2023-03-29T04:25:21.294Z,655.9231
2023-03-29T04:26:22.915Z,659.5385
2023-03-29T04:27:24.565Z,660.2308
2023-03-29T04:28:26.253Z,655.4615
2023-03-29T04:29:27.853Z,654.4615
2023-03-29T04:30:29.546Z,655.6154
2023-03-29T04:31:31.272Z,657.2308
2023-03-29T04:32:32.855Z,652.9231
2023-03-29T04:33:34.472Z,651.4615
2023-03-29T04:34:36.140Z,656.3846
2023-03-29T04:35:37.851Z,655.5385
2023-03-29T04:36:39.453Z,655.2308
2023-03-29T04:37:41.078Z,658.8461
2023-03-29T04:38:46.097Z,658.3077
2023-03-29T04:39:44.380Z,654.3077
2023-03-29T04:40:46.072Z,655.8461
2023-03-29T04:41:47.687Z,651.0769
2023-03-29T04:42:49.365Z,653.3846
2023-03-29T04:43:51.000Z,657.0000
2023-03-29T04:44:52.698Z,658.4615
2023-03-29T04:45:54.379Z,619.6923
2023-03-29T04:46:55.992Z,549.1539
2023-03-29T04:47:57.663Z,502.9231
2023-03-29T04:48:59.317Z,464.4615
2023-03-29T04:50:00.912Z,442.8462
2023-03-29T04:51:02.777Z,437.8462
2023-03-29T04:52:04.226Z,440.0000
2023-03-29T04:53:05.896Z,445.0000
2023-03-29T04:54:07.530Z,447.4615
2023-03-29T04:55:09.232Z,450.8462
2023-03-29T04:56:10.858Z,470.5385
2023-03-29T04:57:12.559Z,485.0000
2023-03-29T04:58:14.121Z,520.7692
2023-03-29T04:59:15.795Z,555.8461
2023-03-29T05:00:17.463Z,584.3846
2023-03-29T05:01:19.171Z,599.3077
2023-03-29T05:02:20.736Z,599.9231
2023-03-29T05:03:22.418Z,588.2308
2023-03-29T05:04:24.065Z,572.9231
2023-03-29T05:05:25.732Z,560.2308
2023-03-29T05:06:27.376Z,554.6923
2023-03-29T05:07:29.085Z,565.6923
2023-03-29T05:08:30.664Z,579.0000
2023-03-29T05:09:35.037Z,596.2308
2023-03-29T05:10:33.977Z,599.3077
2023-03-29T05:11:35.678Z,595.1539
2023-03-29T05:12:37.285Z,585.8461
2023-03-29T05:13:38.937Z,578.3846
2023-03-29T05:14:40.589Z,579.4615
2023-03-29T05:15:42.267Z,589.8461
2023-03-29T05:16:43.999Z,597.5385
2023-03-29T05:17:45.576Z,597.6923
2023-03-29T05:18:47.214Z,596.9231
2023-03-29T05:19:48.883Z,592.5385
2023-03-29T05:20:50.535Z,585.8461
2023-03-29T05:21:52.219Z,586.3846
2023-03-29T05:22:53.858Z,588.8461
2023-03-29T05:23:55.503Z,589.6923
2023-03-29T05:24:57.135Z,589.2308
2023-03-29T05:25:58.808Z,594.5385
2023-03-29T05:27:00.468Z,604.6154
2023-03-29T05:28:02.112Z,614.8461
2023-03-29T05:29:03.749Z,630.2308
2023-03-29T05:30:05.422Z,641.3846
2023-03-29T05:31:07.068Z,639.8461
2023-03-29T05:32:08.857Z,642.7692
2023-03-29T05:33:10.405Z,642.9231
2023-03-29T05:34:12.032Z,642.3077
2023-03-29T05:35:13.661Z,639.2308
2023-03-29T05:36:15.408Z,639.3077
2023-03-29T05:37:17.024Z,648.7692
2023-03-29T05:38:18.648Z,645.8461
2023-03-29T05:39:20.283Z,644.0769
2023-03-29T05:40:21.966Z,653.1539
2023-03-29T05:41:23.622Z,674.3846
2023-03-29T05:42:25.283Z,700.8461
2023-03-29T05:43:26.898Z,723.3077
2023-03-29T05:44:28.581Z,738.0000
2023-03-29T05:45:30.276Z,747.9231
2023-03-29T05:46:31.896Z,740.5385
2023-03-29T05:47:33.637Z,735.6154
2023-03-29T05:48:35.303Z,738.0769
2023-03-29T05:49:36.852Z,736.5385
2023-03-29T05:50:38.476Z,731.9231
2023-03-29T05:51:40.145Z,725.8461
2023-03-29T05:52:41.810Z,722.6923
2023-03-29T05:53:43.466Z,721.3846
2023-03-29T05:54:45.135Z,720.0000
2023-03-29T05:55:46.782Z,717.0000
2023-03-29T05:56:48.456Z,715.6923
2023-03-29T05:57:50.106Z,717.6923
2023-03-29T05:58:53.657Z,716.3077
2023-03-29T05:59:53.411Z,716.9231
2023-03-29T06:00:55.010Z,722.4615
2023-03-29T06:01:56.734Z,726.0769
2023-03-29T06:03:03.780Z,730.8461
2023-03-29T06:04:00.102Z,728.2500
2023-03-29T06:05:01.657Z,731.4615
2023-03-29T06:06:03.310Z,733.1539
2023-03-29T06:07:04.934Z,732.3077
2023-03-29T06:08:06.631Z,735.6154
2023-03-29T06:09:08.250Z,734.1539
2023-03-29T06:10:09.918Z,735.6923
2023-03-29T06:11:11.543Z,669.8461
2023-03-29T06:12:13.216Z,560.3077
2023-03-29T06:13:14.878Z,507.3077
2023-03-29T06:14:16.516Z,475.7692
2023-03-29T06:15:18.156Z,461.6154
2023-03-29T06:16:19.839Z,445.2308
2023-03-29T06:17:21.457Z,442.0769
2023-03-29T06:18:23.180Z,437.7692
2023-03-29T06:19:24.764Z,454.6154
2023-03-29T06:20:26.447Z,483.1538
2023-03-29T06:21:28.063Z,501.9231
2023-03-29T06:22:29.754Z,516.0769
2023-03-29T06:23:31.411Z,533.3077
2023-03-29T06:24:33.044Z,534.2308
2023-03-29T06:25:34.699Z,530.1539
2023-03-29T06:26:36.349Z,522.0000
2023-03-29T06:27:38.008Z,509.6154
2023-03-29T06:28:39.702Z,508.9231
2023-03-29T06:29:41.298Z,509.3077
2023-03-29T06:30:42.962Z,513.0769
2023-03-29T06:31:44.668Z,531.4615
2023-03-29T06:32:46.332Z,571.9231
2023-03-29T06:33:47.931Z,584.3077
2023-03-29T06:34:49.600Z,592.6923
2023-03-29T06:35:51.305Z,603.9231
2023-03-29T06:36:52.888Z,625.1539
2023-03-29T06:37:54.562Z,645.1539
2023-03-29T06:38:56.240Z,657.0000
2023-03-29T06:39:57.841Z,664.9231
2023-03-29T06:40:59.610Z,669.4615
2023-03-29T06:42:10.057Z,681.5385
2023-03-29T06:43:02.804Z,724.0000
2023-03-29T06:44:04.450Z,741.2308
2023-03-29T06:45:06.138Z,738.7692
2023-03-29T06:46:07.790Z,731.2308
2023-03-29T06:47:09.528Z,726.6154
2023-03-29T06:48:11.171Z,719.8461
2023-03-29T06:49:12.869Z,711.6923
2023-03-29T06:50:14.445Z,705.0000
2023-03-29T06:51:16.118Z,704.2308
2023-03-29T06:52:17.744Z,740.0000
2023-03-29T06:53:19.415Z,761.0769
2023-03-29T06:54:21.142Z,751.0769
2023-03-29T06:55:22.721Z,744.1539
2023-03-29T06:56:24.370Z,747.9231
2023-03-29T06:57:26.177Z,750.4615
2023-03-29T06:58:27.662Z,747.4615
2023-03-29T06:59:29.368Z,746.7692
2023-03-29T07:00:30.988Z,746.8461
2023-03-29T07:01:32.651Z,755.0769
2023-03-29T07:02:34.285Z,753.1539
2023-03-29T07:03:35.959Z,741.0000
2023-03-29T07:04:37.670Z,741.3846
2023-03-29T07:05:39.311Z,737.4615
2023-03-29T07:06:40.889Z,730.5385
2023-03-29T07:07:42.559Z,730.3846
2023-03-29T07:08:44.202Z,730.6154
2023-03-29T07:09:45.880Z,730.3077
2023-03-29T07:10:47.602Z,726.5385
2023-03-29T07:11:49.168Z,733.4615
2023-03-29T07:12:50.796Z,730.1539
2023-03-29T07:13:52.490Z,730.2308
2023-03-29T07:14:54.147Z,729.6923
2023-03-29T07:15:55.838Z,733.5385
2023-03-29T07:16:57.445Z,733.3846
2023-03-29T07:17:59.181Z,737.5385
2023-03-29T07:19:00.738Z,743.4615
2023-03-29T07:20:02.499Z,745.8461
2023-03-29T07:21:04.154Z,751.0769
2023-03-29T07:22:05.708Z,754.9231
2023-03-29T07:23:07.370Z,752.7692
2023-03-29T07:24:09.007Z,754.2308
2023-03-29T07:25:10.693Z,759.5385
2023-03-29T07:26:12.323Z,757.9231
2023-03-29T07:27:13.977Z,766.0000
2023-03-29T07:28:15.670Z,770.3077
2023-03-29T07:29:17.288Z,774.3846
2023-03-29T07:30:18.942Z,777.5385
2023-03-29T07:31:20.558Z,776.5385
2023-03-29T07:32:22.497Z,777.7692
2023-03-29T07:33:23.998Z,784.5385
2023-03-29T07:34:25.540Z,784.6923
2023-03-29T07:35:27.189Z,785.3077
2023-03-29T07:36:28.870Z,793.1539
2023-03-29T07:37:30.493Z,792.6154
2023-03-29T07:38:32.179Z,797.2308
2023-03-29T07:39:33.797Z,801.3077
2023-03-29T07:40:35.476Z,801.1539
2023-03-29T07:41:37.099Z,802.6154
2023-03-29T07:42:38.792Z,802.2308
2023-03-29T07:43:40.422Z,802.5385
2023-03-29T07:44:42.097Z,804.2308
2023-03-29T07:45:43.743Z,811.2308
2023-03-29T07:46:45.412Z,810.3077
2023-03-29T07:47:47.032Z,815.8461
2023-03-29T07:48:48.696Z,817.6154
2023-03-29T07:49:50.330Z,816.4615
2023-03-29T07:50:52.048Z,816.1539
2023-03-29T07:51:53.635Z,819.6154
2023-03-29T07:52:55.286Z,816.0769
2023-03-29T07:53:56.958Z,821.0000
2023-03-29T07:54:58.589Z,827.3846
2023-03-29T07:56:00.270Z,832.7692
2023-03-29T07:57:01.978Z,831.4615
2023-03-29T07:58:03.548Z,833.5385
2023-03-29T07:59:05.221Z,833.6154
2023-03-29T08:00:06.856Z,837.0769
2023-03-29T08:01:08.639Z,837.6154
2023-03-29T08:02:10.161Z,837.2308
2023-03-29T08:03:11.895Z,841.6154
2023-03-29T08:04:13.534Z,840.1539
2023-03-29T08:05:17.476Z,842.3846
2023-03-29T08:06:16.838Z,838.2500
2023-03-29T08:07:18.967Z,837.7692
2023-03-29T08:08:20.078Z,838.0769
2023-03-29T08:09:21.766Z,838.1539
2023-03-29T08:10:23.384Z,839.3846
2023-03-29T08:11:25.074Z,840.0000
2023-03-29T08:12:26.700Z,838.9231
2023-03-29T08:13:28.362Z,840.3077
2023-03-29T08:14:30.009Z,842.6154
2023-03-29T08:15:31.667Z,842.9231
2023-03-29T08:16:33.406Z,851.6154
2023-03-29T08:17:35.082Z,855.7692
2023-03-29T08:18:36.737Z,853.0000
2023-03-29T08:19:38.290Z,856.7692
2023-03-29T08:20:39.919Z,858.6923
2023-03-29T08:21:41.619Z,861.5385
2023-03-29T08:22:43.228Z,873.2308
2023-03-29T08:23:44.918Z,868.3846
2023-03-29T08:24:46.547Z,869.0000
2023-03-29T08:25:48.247Z,872.2308
2023-03-29T08:26:49.883Z,865.3077
2023-03-29T08:27:51.520Z,865.2308
2023-03-29T08:28:53.157Z,874.6154
2023-03-29T08:29:54.836Z,879.8461
2023-03-29T08:30:56.485Z,880.9231
2023-03-29T08:31:58.159Z,883.3077
2023-03-29T08:32:59.787Z,881.0000
2023-03-29T08:34:01.437Z,881.7692
2023-03-29T08:35:03.078Z,884.6923
2023-03-29T08:36:04.780Z,885.3846
2023-03-29T08:37:06.414Z,887.5385
2023-03-29T08:38:08.067Z,892.0000
2023-03-29T08:39:09.686Z,889.8461
2023-03-29T08:40:11.363Z,883.0000
2023-03-29T08:41:13.000Z,890.6923
2023-03-29T08:42:14.689Z,930.0000
2023-03-29T08:43:16.287Z,953.6154
2023-03-29T08:44:17.974Z,950.1539
2023-03-29T08:45:19.646Z,849.6154
2023-03-29T08:46:21.346Z,882.3846
2023-03-29T08:47:22.933Z,917.3846
2023-03-29T08:48:24.573Z,943.3846
2023-03-29T08:49:26.251Z,943.9231
2023-03-29T08:50:27.888Z,948.6923
2023-03-29T08:51:29.532Z,953.0769
2023-03-29T08:52:31.290Z,956.3846
2023-03-29T08:53:32.858Z,954.3846
2023-03-29T08:54:34.517Z,958.5385
2023-03-29T08:55:36.145Z,957.4615
2023-03-29T08:56:37.835Z,958.0769
2023-03-29T08:57:39.559Z,964.3077
2023-03-29T08:58:41.134Z,970.4615
2023-03-29T08:59:42.743Z,972.6154
2023-03-29T09:00:44.431Z,974.9231
2023-03-29T09:01:48.447Z,975.4615
2023-03-29T09:02:47.829Z,978.3077
2023-03-29T09:03:49.473Z,979.6923
2023-03-29T09:04:51.013Z,977.8461
2023-03-29T09:05:52.649Z,981.6154
2023-03-29T09:06:54.339Z,982.9231
2023-03-29T09:07:55.976Z,983.9231
2023-03-29T09:08:57.633Z,1012.0769
2023-03-29T09:09:59.263Z,1071.3846
2023-03-29T09:11:01.091Z,1116.6923
2023-03-29T09:12:02.570Z,1123.5385
2023-03-29T09:13:04.299Z,1123.3077
2023-03-29T09:14:05.879Z,1122.3846
2023-03-29T09:15:07.549Z,1112.5385
2023-03-29T09:16:09.173Z,1109.2307
2023-03-29T09:17:10.868Z,1112.8462
2023-03-29T09:18:12.556Z,1120.0769
2023-03-29T09:19:14.172Z,1131.3846
2023-03-29T09:20:15.802Z,1138.8462
2023-03-29T09:21:17.462Z,1150.0000
2023-03-29T09:22:20.078Z,1150.0000
2023-03-29T09:23:20.793Z,1148.1538
2023-03-29T09:24:22.423Z,1137.0000
2023-03-29T09:25:24.097Z,1133.3077
2023-03-29T09:26:25.740Z,1126.1538
2023-03-29T09:27:27.393Z,1122.2307
2023-03-29T09:28:29.049Z,1121.3846
2023-03-29T09:29:30.703Z,1121.5385
2023-03-29T09:30:32.360Z,1117.5385
2023-03-29T09:31:34.042Z,1115.8462
2023-03-29T09:32:35.706Z,1113.1538
2023-03-29T09:33:37.406Z,1104.6154
2023-03-29T09:34:38.970Z,1108.4615
2023-03-29T09:35:40.640Z,1106.1538
2023-03-29T09:36:42.269Z,1105.6923
2023-03-29T09:37:43.934Z,1107.3846
2023-03-29T09:38:45.604Z,1109.5385
2023-03-29T09:39:47.267Z,1110.6923
2023-03-29T09:40:48.900Z,1115.7693
2023-03-29T09:41:50.545Z,1116.5385
2023-03-29T09:42:52.331Z,1115.3846
2023-03-29T09:43:53.896Z,1117.7693
2023-03-29T09:44:55.489Z,1120.5385
2023-03-29T09:45:57.238Z,1123.3846
2023-03-29T09:46:58.857Z,1126.1538
2023-03-29T09:48:00.572Z,1128.0769
2023-03-29T09:49:02.169Z,1129.3077
2023-03-29T09:50:03.799Z,1131.8462
2023-03-29T09:51:05.431Z,1133.4615
2023-03-29T09:52:07.075Z,1133.0000
2023-03-29T09:53:08.726Z,1139.1538
2023-03-29T09:54:10.436Z,1144.3077
2023-03-29T09:55:12.030Z,1142.3077
2023-03-29T09:56:13.699Z,1139.7693
2023-03-29T09:57:15.415Z,1140.7693
2023-03-29T09:58:17.026Z,1139.2307
2023-03-29T09:59:18.691Z,1145.6923
2023-03-29T10:00:20.313Z,1151.0000
2023-03-29T10:01:21.949Z,1150.0000
2023-03-29T10:02:23.628Z,1153.6923
2023-03-29T10:03:25.241Z,1161.4615
2023-03-29T10:04:26.992Z,1176.5385
2023-03-29T10:05:28.548Z,1192.4615
2023-03-29T10:06:30.215Z,1209.6154
2023-03-29T10:07:31.852Z,1236.1538
2023-03-29T10:08:33.578Z,1260.5385
2023-03-29T10:09:35.200Z,1284.6154
2023-03-29T10:10:36.889Z,1323.1538
2023-03-29T10:11:38.498Z,1351.3846
2023-03-29T10:12:40.138Z,1370.9231
2023-03-29T10:13:41.777Z,1368.0000
2023-03-29T10:14:43.468Z,1351.0000
2023-03-29T10:15:45.103Z,1361.5385
2023-03-29T10:16:46.874Z,1352.6154
2023-03-29T10:17:48.467Z,1338.2307
2023-03-29T10:18:50.061Z,1334.2307
2023-03-29T10:19:51.741Z,1341.2307
2023-03-29T10:20:53.384Z,1376.3846
2023-03-29T10:21:55.023Z,1403.0000
2023-03-29T10:22:56.674Z,1406.8462
2023-03-29T10:23:58.304Z,1407.0000
2023-03-29T10:25:00.031Z,1412.6923
2023-03-29T10:26:01.625Z,1417.6154
2023-03-29T10:27:03.290Z,1397.7693
2023-03-29T10:28:04.935Z,1389.3077
2023-03-29T10:29:06.594Z,1404.3846
2023-03-29T10:30:08.253Z,1426.9231
2023-03-29T10:31:09.928Z,1425.3077
2023-03-29T10:32:11.574Z,1427.8462
2023-03-29T10:33:13.219Z,1441.0000
2023-03-29T10:34:14.830Z,1456.3077
2023-03-29T10:35:16.536Z,1463.6154
2023-03-29T10:36:18.156Z,1450.5385
2023-03-29T10:37:19.818Z,1412.8462
2023-03-29T10:38:21.486Z,1384.5385
2023-03-29T10:39:23.112Z,1356.2307
2023-03-29T10:40:24.787Z,1349.9231
2023-03-29T10:41:26.414Z,1360.3077
2023-03-29T10:42:28.047Z,1370.7693
2023-03-29T10:43:29.799Z,1369.6154
2023-03-29T10:44:33.174Z,1356.0000
2023-03-29T10:45:33.073Z,1345.3846
2023-03-29T10:46:34.789Z,1320.7693
2023-03-29T10:47:36.361Z,1057.4615
2023-03-29T10:48:38.023Z,730.6154
2023-03-29T10:49:39.656Z,860.3077
2023-03-29T10:50:41.367Z,1045.6923
2023-03-29T10:51:43.018Z,1116.4615
2023-03-29T10:52:44.650Z,1145.1538
2023-03-29T10:53:46.325Z,1153.0769
2023-03-29T10:54:47.956Z,1154.2307
2023-03-29T10:55:49.657Z,1151.3846
2023-03-29T10:56:52.558Z,1156.2307
2023-03-29T10:57:52.925Z,1157.6154
2023-03-29T10:58:54.574Z,1168.0769
2023-03-29T10:59:56.218Z,1177.2307
2023-03-29T11:00:57.875Z,1175.4615
2023-03-29T11:01:59.561Z,1178.4615
2023-03-29T11:03:01.217Z,1192.0000
2023-03-29T11:04:02.909Z,1204.5385
2023-03-29T11:05:04.441Z,1216.0769
2023-03-29T11:06:06.141Z,1228.1538
2023-03-29T11:07:07.751Z,1229.7693
2023-03-29T11:08:09.439Z,1204.3077
2023-03-29T11:09:11.054Z,1210.6923
2023-03-29T11:10:12.738Z,1212.5385
2023-03-29T11:11:14.406Z,1200.6923
2023-03-29T11:12:16.659Z,1179.3846
2023-03-29T11:13:17.694Z,1170.3846
2023-03-29T11:14:19.331Z,1162.3846
2023-03-29T11:15:20.950Z,1166.6154
2023-03-29T11:16:22.906Z,1246.8462
2023-03-29T11:17:24.275Z,1341.1538
2023-03-29T11:18:25.929Z,1363.3077
2023-03-29T11:19:27.574Z,1353.8462
2023-03-29T11:20:29.241Z,1327.3077
2023-03-29T11:21:30.897Z,1279.0769
2023-03-29T11:22:32.560Z,1238.3846
2023-03-29T11:23:34.196Z,1215.0769
2023-03-29T11:24:35.875Z,1200.7693
2023-03-29T11:25:37.478Z,1187.0769
2023-03-29T11:26:39.203Z,1183.3077
2023-03-29T11:27:40.787Z,1178.6154
2023-03-29T11:28:42.468Z,1165.6154
2023-03-29T11:29:44.126Z,1167.3846
2023-03-29T11:30:45.798Z,1169.0769
2023-03-29T11:31:47.508Z,1166.9231
2023-03-29T11:32:49.086Z,1161.6154
2023-03-29T11:33:50.713Z,1159.7693
2023-03-29T11:34:52.384Z,1162.0769
2023-03-29T11:35:54.064Z,1164.3077
2023-03-29T11:36:55.727Z,1163.3846
2023-03-29T11:37:57.313Z,1163.8462
2023-03-29T11:38:58.968Z,1162.1538
2023-03-29T11:40:00.611Z,1170.0769
2023-03-29T11:41:02.596Z,1171.0769
2023-03-29T11:42:03.935Z,1171.3077
2023-03-29T11:43:05.576Z,1163.2307
2023-03-29T11:44:07.236Z,1165.1538
2023-03-29T11:45:08.874Z,1173.6923
2023-03-29T11:46:10.523Z,1174.4615
2023-03-29T11:47:12.233Z,1173.9231
2023-03-29T11:48:13.821Z,1174.8462
2023-03-29T11:49:15.489Z,1185.1538
2023-03-29T11:50:17.142Z,1192.2307
2023-03-29T11:51:18.791Z,1200.0769
2023-03-29T11:52:20.468Z,1238.2307
2023-03-29T11:53:22.080Z,1297.0000
2023-03-29T11:54:23.758Z,1367.0769
2023-03-29T11:55:25.398Z,1438.0000
2023-03-29T11:56:27.042Z,1469.4615
2023-03-29T11:57:28.861Z,1451.2307
2023-03-29T11:58:30.344Z,1458.7693